createdAt,value
2024-01-24T00:02:05.303Z,10.92
2024-01-24T00:04:32.049Z,10.91
2024-01-24T00:06:58.750Z,10.90
2024-01-24T00:09:25.646Z,10.90
2024-01-24T00:11:52.472Z,10.91
2024-01-24T00:14:19.213Z,10.92
2024-01-24T00:16:45.913Z,10.92
2024-01-24T00:19:12.658Z,10.94
2024-01-24T00:21:40.219Z,10.94
2024-01-24T00:24:07.099Z,10.92
2024-01-24T00:26:34.360Z,10.90
2024-01-24T00:29:01.090Z,10.86
2024-01-24T00:31:27.912Z,10.83
2024-01-24T00:33:54.731Z,10.78
2024-01-24T00:36:21.553Z,10.76
2024-01-24T00:38:48.327Z,10.73
2024-01-24T00:41:15.134Z,10.69
2024-01-24T00:43:43.148Z,10.63
2024-01-24T00:46:10.368Z,10.62
2024-01-24T00:48:37.253Z,10.61
2024-01-24T00:51:04.612Z,10.60
2024-01-24T00:53:34.860Z,10.62
2024-01-24T00:56:01.697Z,10.60
2024-01-24T00:58:28.410Z,10.56
2024-01-24T01:00:55.283Z,10.56
2024-01-24T01:03:22.343Z,10.52
2024-01-24T01:05:49.054Z,10.50
2024-01-24T01:08:15.956Z,10.47
2024-01-24T01:10:43.340Z,10.44
2024-01-24T01:13:10.024Z,10.42
2024-01-24T01:15:36.762Z,10.42
2024-01-24T01:18:03.727Z,10.41
2024-01-24T01:20:30.814Z,10.37
2024-01-24T01:22:57.492Z,10.37
2024-01-24T01:25:24.178Z,10.33
2024-01-24T01:27:50.961Z,10.31
2024-01-24T01:30:17.869Z,10.26
2024-01-24T01:32:44.684Z,10.24
2024-01-24T01:35:11.504Z,10.23
2024-01-24T01:37:39.372Z,10.23
2024-01-24T01:40:07.944Z,10.22
2024-01-24T01:42:34.702Z,10.20
2024-01-24T01:45:01.493Z,10.20
2024-01-24T01:47:28.627Z,10.21
2024-01-24T01:49:55.626Z,10.20
2024-01-24T01:52:24.011Z,10.20
2024-01-24T01:54:52.324Z,10.21
2024-01-24T01:57:19.232Z,10.21
2024-01-24T01:59:46.545Z,10.20
2024-01-24T02:02:14.476Z,10.17
2024-01-24T02:04:41.237Z,10.13
2024-01-24T02:07:08.219Z,10.10
2024-01-24T02:09:35.677Z,10.06
2024-01-24T02:12:02.436Z,10.04
2024-01-24T02:14:29.635Z,10.03
2024-01-24T02:16:56.346Z,10.01
2024-01-24T02:19:23.429Z,10.02
2024-01-24T02:21:50.217Z,10.02
2024-01-24T02:24:17.129Z,10.01
2024-01-24T02:26:44.212Z,9.99
2024-01-24T02:29:12.905Z,9.97
2024-01-24T02:31:39.683Z,9.95
2024-01-24T02:34:06.534Z,9.92
2024-01-24T02:36:33.357Z,9.92
2024-01-24T02:39:00.060Z,9.95
2024-01-24T02:41:26.736Z,9.96
2024-01-24T02:43:53.494Z,9.97
2024-01-24T02:46:20.185Z,9.98
2024-01-24T02:48:47.035Z,9.99
2024-01-24T02:51:23.572Z,9.99
2024-01-24T02:53:50.258Z,9.99
2024-01-24T02:56:17.021Z,9.99
2024-01-24T02:58:43.731Z,9.95
2024-01-24T03:01:12.488Z,9.96
2024-01-24T03:03:40.872Z,9.95
2024-01-24T03:06:08.034Z,9.96
2024-01-24T03:08:56.218Z,9.96
2024-01-24T03:11:23.102Z,9.96
2024-01-24T03:13:49.843Z,9.95
2024-01-24T03:16:17.955Z,9.96
2024-01-24T03:18:45.047Z,9.96
2024-01-24T03:21:16.877Z,9.96
2024-01-24T03:23:43.676Z,9.97
2024-01-24T03:26:10.578Z,9.96
2024-01-24T03:28:37.346Z,9.97
2024-01-24T03:31:04.107Z,9.98
2024-01-24T03:33:31.090Z,9.98
2024-01-24T03:35:58.030Z,9.98
2024-01-24T03:38:24.736Z,9.98
2024-01-24T03:40:51.480Z,10.00
2024-01-24T03:43:18.205Z,9.97
2024-01-24T03:45:45.103Z,9.98
2024-01-24T03:48:12.120Z,9.95
2024-01-24T03:50:39.457Z,9.95
2024-01-24T03:53:06.448Z,9.95
2024-01-24T03:55:33.173Z,9.95
2024-01-24T03:58:00.047Z,9.94
2024-01-24T04:00:28.960Z,9.94
2024-01-24T04:02:55.757Z,9.92
2024-01-24T04:05:22.711Z,9.90
2024-01-24T04:07:49.398Z,9.89
2024-01-24T04:10:17.337Z,9.91
2024-01-24T04:12:44.217Z,9.89
2024-01-24T04:15:11.075Z,9.88
2024-01-24T04:17:37.930Z,9.86
2024-01-24T04:20:05.364Z,9.85
2024-01-24T04:22:32.041Z,9.86
2024-01-24T04:24:58.814Z,9.85
2024-01-24T04:27:25.602Z,9.86
2024-01-24T04:29:52.296Z,9.87
2024-01-24T04:32:19.215Z,9.90
2024-01-24T04:34:46.274Z,9.88
2024-01-24T04:37:13.125Z,9.86
2024-01-24T04:39:39.924Z,9.86
2024-01-24T04:42:12.307Z,9.85
2024-01-24T04:44:43.543Z,9.82
2024-01-24T04:47:10.596Z,9.82
2024-01-24T04:49:44.631Z,9.82
2024-01-24T04:52:13.163Z,9.81
2024-01-24T04:54:39.924Z,9.81
2024-01-24T04:57:06.709Z,9.79
2024-01-24T04:59:42.509Z,9.78
2024-01-24T05:02:16.162Z,9.78
2024-01-24T05:04:42.959Z,9.77
2024-01-24T05:07:11.088Z,9.77
2024-01-24T05:09:37.868Z,9.77
2024-01-24T05:12:04.997Z,9.75
2024-01-24T05:14:31.734Z,9.73
2024-01-24T05:16:58.451Z,9.72
2024-01-24T05:19:25.407Z,9.72
2024-01-24T05:21:52.215Z,9.70
2024-01-24T05:24:18.945Z,9.68
2024-01-24T05:26:47.680Z,9.66
2024-01-24T05:29:14.578Z,9.66
2024-01-24T05:31:41.345Z,9.65
2024-01-24T05:34:09.457Z,9.64
2024-01-24T05:36:37.376Z,9.63
2024-01-24T05:39:08.636Z,9.61
2024-01-24T05:41:37.025Z,9.60
2024-01-24T05:44:04.334Z,9.61
2024-01-24T05:46:31.487Z,9.61
2024-01-24T05:48:59.771Z,9.62
2024-01-24T05:51:26.779Z,9.62
2024-01-24T05:53:53.506Z,9.62
2024-01-24T05:56:20.812Z,9.62
2024-01-24T05:58:48.146Z,9.59
2024-01-24T06:01:14.975Z,9.58
2024-01-24T06:03:42.871Z,9.57
2024-01-24T06:06:10.038Z,9.57
2024-01-24T06:08:38.209Z,9.57
2024-01-24T06:11:05.857Z,9.55
2024-01-24T06:13:32.849Z,9.55
2024-01-24T06:15:59.755Z,9.55
2024-01-24T06:18:26.584Z,9.54
2024-01-24T06:20:53.436Z,9.52
2024-01-24T06:23:20.109Z,9.52
2024-01-24T06:25:46.853Z,9.52
2024-01-24T06:28:14.368Z,9.50
2024-01-24T06:30:41.354Z,9.47
2024-01-24T06:33:08.656Z,9.41
2024-01-24T06:35:35.469Z,9.37
2024-01-24T06:38:02.706Z,9.35
2024-01-24T06:40:29.536Z,9.34
2024-01-24T06:42:56.337Z,9.32
2024-01-24T06:45:23.144Z,9.32
2024-01-24T06:47:51.477Z,9.32
2024-01-24T06:50:19.266Z,9.31
2024-01-24T06:52:46.847Z,9.27
2024-01-24T06:55:14.915Z,9.27
2024-01-24T06:57:41.966Z,9.25
2024-01-24T07:00:09.942Z,9.23
2024-01-24T07:02:37.801Z,9.23
2024-01-24T07:05:05.250Z,9.22
2024-01-24T07:07:32.458Z,9.20
2024-01-24T07:09:59.327Z,9.18
2024-01-24T07:12:26.151Z,9.15
2024-01-24T07:14:53.652Z,9.13
2024-01-24T07:17:21.409Z,9.11
2024-01-24T07:19:48.913Z,9.06
2024-01-24T07:22:17.760Z,9.07
2024-01-24T07:24:48.386Z,9.05
2024-01-24T07:27:15.311Z,9.02
2024-01-24T07:29:42.333Z,8.99
2024-01-24T07:32:09.053Z,8.96
2024-01-24T07:34:37.324Z,8.94
2024-01-24T07:37:04.928Z,8.93
2024-01-24T07:39:32.177Z,8.87
2024-01-24T07:41:59.025Z,8.86
2024-01-24T07:44:25.863Z,8.84
2024-01-24T07:46:52.954Z,8.84
2024-01-24T07:49:20.119Z,8.80
2024-01-24T07:51:50.378Z,8.75
2024-01-24T07:54:21.344Z,8.72
2024-01-24T07:56:48.887Z,8.67
2024-01-24T07:59:17.843Z,8.66
2024-01-24T08:01:51.017Z,8.65
2024-01-24T08:04:19.050Z,8.63
2024-01-24T08:06:49.009Z,8.61
2024-01-24T08:09:19.216Z,8.60
2024-01-24T08:11:46.180Z,8.57
2024-01-24T08:14:13.755Z,8.50
2024-01-24T08:16:40.567Z,8.48
2024-01-24T08:19:07.487Z,8.48
2024-01-24T08:21:34.957Z,8.46
2024-01-24T08:24:01.649Z,8.46
2024-01-24T08:26:28.407Z,8.45
2024-01-24T08:28:55.338Z,8.47
2024-01-24T08:31:22.084Z,8.46
2024-01-24T08:33:51.521Z,8.45
2024-01-24T08:36:20.470Z,8.45
2024-01-24T08:38:47.449Z,8.46
2024-01-24T08:41:14.491Z,8.45
2024-01-24T08:43:41.239Z,8.46
2024-01-24T08:46:07.981Z,8.43
2024-01-24T08:48:34.786Z,8.43
2024-01-24T08:51:01.701Z,8.43
2024-01-24T08:53:28.437Z,8.44
2024-01-24T08:55:56.165Z,8.47
2024-01-24T08:58:23.133Z,8.47
2024-01-24T09:00:51.799Z,8.48
2024-01-24T09:03:20.244Z,8.49
2024-01-24T09:05:47.749Z,8.51
2024-01-24T09:08:14.612Z,8.55
2024-01-24T09:10:41.486Z,8.60
2024-01-24T09:13:08.341Z,8.63
2024-01-24T09:15:35.814Z,8.65
2024-01-24T09:18:02.844Z,8.69
2024-01-24T09:20:29.893Z,8.72
2024-01-24T09:22:56.861Z,8.76
2024-01-24T09:25:23.851Z,8.78
2024-01-24T09:27:50.806Z,8.80
2024-01-24T09:30:18.080Z,8.82
2024-01-24T09:32:45.042Z,8.85
2024-01-24T09:35:12.205Z,8.90
2024-01-24T09:37:39.201Z,8.94
2024-01-24T09:40:07.954Z,8.96
2024-01-24T09:42:44.712Z,8.98
2024-01-24T09:45:12.150Z,9.02
2024-01-24T09:47:39.025Z,9.04
2024-01-24T09:50:07.350Z,9.08
2024-01-24T09:52:34.996Z,9.08
2024-01-24T09:55:06.126Z,9.08
2024-01-24T09:57:34.765Z,9.10
2024-01-24T10:00:02.350Z,9.12
2024-01-24T10:02:29.383Z,9.12
2024-01-24T10:04:58.843Z,9.14
2024-01-24T10:07:28.005Z,9.16
2024-01-24T10:10:10.264Z,9.20
2024-01-24T10:12:37.768Z,9.23
2024-01-24T10:15:05.008Z,9.24
2024-01-24T10:17:32.220Z,9.25
2024-01-24T10:20:02.550Z,9.29
2024-01-24T10:22:29.429Z,9.29
2024-01-24T10:24:56.460Z,9.31
2024-01-24T10:27:24.366Z,9.35
2024-01-24T10:29:54.013Z,9.36
2024-01-24T10:32:21.862Z,9.37
2024-01-24T10:34:51.379Z,9.40
2024-01-24T10:37:19.981Z,9.41
2024-01-24T10:39:49.345Z,9.46
2024-01-24T10:42:19.331Z,9.49
2024-01-24T10:44:51.183Z,9.50
2024-01-24T10:47:18.970Z,9.51
2024-01-24T10:49:48.149Z,9.53
2024-01-24T10:52:16.550Z,9.54
2024-01-24T10:54:46.185Z,9.55
2024-01-24T10:57:16.144Z,9.56
2024-01-24T10:59:45.387Z,9.62
2024-01-24T11:02:12.344Z,9.63
2024-01-24T11:04:40.488Z,9.64
2024-01-24T11:07:13.087Z,9.67
2024-01-24T11:09:57.692Z,9.68
2024-01-24T11:12:24.600Z,9.70
2024-01-24T11:14:52.652Z,9.72
2024-01-24T11:17:21.278Z,9.74
2024-01-24T11:19:48.196Z,9.77
2024-01-24T11:22:29.847Z,9.79
2024-01-24T11:24:59.931Z,9.79
2024-01-24T11:27:26.789Z,9.79
2024-01-24T11:29:55.506Z,9.82
2024-01-24T11:32:56.460Z,9.86
2024-01-24T11:35:26.256Z,9.89
2024-01-24T11:38:08.279Z,9.93
2024-01-24T11:40:44.731Z,9.96
2024-01-24T11:43:27.866Z,9.98
2024-01-24T11:45:56.125Z,10.00
2024-01-24T11:48:28.255Z,10.05
2024-01-24T11:51:00.424Z,10.05
2024-01-24T11:53:28.215Z,10.08
2024-01-24T11:55:59.542Z,10.07
2024-01-24T11:58:27.942Z,10.09
2024-01-24T12:00:56.054Z,10.12
2024-01-24T12:03:23.724Z,10.14
2024-01-24T12:05:51.237Z,10.15
2024-01-24T12:08:18.414Z,10.16
2024-01-24T12:10:45.521Z,10.21
2024-01-24T12:13:13.917Z,10.24
2024-01-24T12:15:43.303Z,10.29
2024-01-24T12:18:11.968Z,10.29
2024-01-24T12:20:39.879Z,10.29
2024-01-24T12:23:07.786Z,10.28
2024-01-24T12:25:34.546Z,10.29
2024-01-24T12:28:02.737Z,10.28
2024-01-24T12:30:36.152Z,10.28
2024-01-24T12:33:04.718Z,10.26
2024-01-24T12:35:32.998Z,10.25
2024-01-24T12:38:03.791Z,10.25
2024-01-24T12:40:33.162Z,10.27
2024-01-24T12:43:01.108Z,10.27
2024-01-24T12:45:28.668Z,10.28
2024-01-24T12:47:56.426Z,10.26
2024-01-24T12:50:23.976Z,10.29
2024-01-24T12:52:50.900Z,10.32
2024-01-24T12:55:18.049Z,10.34
2024-01-24T12:57:45.952Z,10.37
2024-01-24T13:00:13.696Z,10.39
2024-01-24T13:02:41.223Z,10.39
2024-01-24T13:05:09.034Z,10.45
2024-01-24T13:07:38.132Z,10.43
2024-01-24T13:10:07.536Z,10.40
2024-01-24T13:12:35.158Z,10.38
2024-01-24T13:15:04.696Z,10.36
2024-01-24T13:17:31.496Z,10.34
2024-01-24T13:19:58.275Z,10.35
2024-01-24T13:22:24.992Z,10.34
2024-01-24T13:24:55.130Z,10.31
2024-01-24T13:27:22.618Z,10.29
2024-01-24T13:29:49.524Z,10.29
2024-01-24T13:32:16.599Z,10.28
2024-01-24T13:34:43.543Z,10.32
2024-01-24T13:37:10.616Z,10.33
2024-01-24T13:39:38.177Z,10.34
2024-01-24T13:42:07.200Z,10.32
2024-01-24T13:44:34.304Z,10.32
2024-01-24T13:47:01.090Z,10.33
2024-01-24T13:49:27.858Z,10.31
2024-01-24T13:51:54.782Z,10.32
2024-01-24T13:54:22.229Z,10.28
2024-01-24T13:56:50.244Z,10.24
2024-01-24T13:59:17.062Z,10.21
2024-01-24T14:01:46.321Z,10.20
2024-01-24T14:04:25.098Z,10.16
2024-01-24T14:06:52.372Z,10.16
2024-01-24T14:09:19.660Z,10.14
2024-01-24T14:11:48.657Z,10.16
2024-01-24T14:14:16.151Z,10.16
2024-01-24T14:16:43.299Z,10.17
2024-01-24T14:19:10.230Z,10.18
2024-01-24T14:21:37.225Z,10.16
2024-01-24T14:24:04.361Z,10.10
2024-01-24T14:26:31.588Z,10.07
2024-01-24T14:28:59.898Z,10.09
2024-01-24T14:31:26.790Z,10.07
2024-01-24T14:33:53.652Z,10.12
2024-01-24T14:36:20.468Z,10.12
2024-01-24T14:38:47.298Z,10.13
2024-01-24T14:41:14.622Z,10.15
2024-01-24T14:43:41.340Z,10.16
2024-01-24T14:46:08.143Z,10.18
2024-01-24T14:48:35.075Z,10.14
2024-01-24T14:51:01.863Z,10.11
2024-01-24T14:53:28.631Z,10.07
2024-01-24T14:55:55.293Z,10.00
2024-01-24T14:58:21.978Z,9.95
2024-01-24T15:00:48.924Z,9.94
2024-01-24T15:03:16.286Z,9.88
2024-01-24T15:05:43.856Z,9.85
2024-01-24T15:08:10.830Z,9.83
2024-01-24T15:10:37.554Z,9.83
2024-01-24T15:13:04.640Z,9.82
2024-01-24T15:15:32.977Z,9.85
2024-01-24T15:17:59.847Z,9.85
2024-01-24T15:20:27.065Z,9.83
2024-01-24T15:22:53.912Z,9.84
2024-01-24T15:25:21.170Z,9.87
2024-01-24T15:27:47.979Z,9.88
2024-01-24T15:30:15.192Z,9.89
2024-01-24T15:32:41.915Z,9.89
2024-01-24T15:35:09.011Z,9.88
2024-01-24T15:37:35.855Z,9.87
2024-01-24T15:40:08.166Z,9.85
2024-01-24T15:42:42.950Z,9.86
2024-01-24T15:45:11.434Z,9.81
2024-01-24T15:47:38.726Z,9.80
2024-01-24T15:50:06.047Z,9.77
2024-01-24T15:52:32.907Z,9.76
2024-01-24T15:55:01.289Z,9.71
2024-01-24T15:57:28.238Z,9.67
2024-01-24T15:59:55.573Z,9.67
2024-01-24T16:02:22.565Z,9.63
2024-01-24T16:04:49.525Z,9.60
2024-01-24T16:07:17.536Z,9.57
2024-01-24T16:09:44.492Z,9.54
2024-01-24T16:12:13.787Z,9.50
2024-01-24T16:14:41.821Z,9.45
2024-01-24T16:17:11.490Z,9.42
2024-01-24T16:19:38.801Z,9.40
2024-01-24T16:22:05.934Z,9.36
2024-01-24T16:24:32.752Z,9.34
2024-01-24T16:26:59.594Z,9.30
2024-01-24T16:29:26.291Z,9.25
2024-01-24T16:31:53.094Z,9.23
2024-01-24T16:34:21.127Z,9.20
2024-01-24T16:36:47.957Z,9.15
2024-01-24T16:39:14.877Z,9.13
2024-01-24T16:41:41.627Z,9.06
2024-01-24T16:44:08.330Z,9.01
2024-01-24T16:46:35.170Z,8.96
2024-01-24T16:49:01.919Z,8.92
2024-01-24T16:51:28.858Z,8.87
2024-01-24T16:53:55.954Z,8.81
2024-01-24T16:56:23.576Z,8.78
2024-01-24T16:58:50.217Z,8.73
2024-01-24T17:01:17.050Z,8.69
2024-01-24T17:03:45.864Z,8.67
2024-01-24T17:06:12.710Z,8.64
2024-01-24T17:08:39.451Z,8.57
2024-01-24T17:11:06.168Z,8.54
2024-01-24T17:13:32.952Z,8.51
2024-01-24T17:15:59.952Z,8.45
2024-01-24T17:18:27.730Z,8.42
2024-01-24T17:20:55.157Z,8.41
2024-01-24T17:23:23.791Z,8.38
2024-01-24T17:25:50.480Z,8.35
2024-01-24T17:28:19.670Z,8.32
2024-01-24T17:30:47.311Z,8.27
2024-01-24T17:33:14.428Z,8.25
2024-01-24T17:35:42.754Z,8.23
2024-01-24T17:38:09.520Z,8.19
2024-01-24T17:40:36.349Z,8.18
2024-01-24T17:43:03.376Z,8.15
2024-01-24T17:45:30.591Z,8.11
2024-01-24T17:47:57.933Z,8.08
2024-01-24T17:50:25.012Z,8.05
2024-01-24T17:52:51.871Z,8.02
2024-01-24T17:55:18.611Z,7.98
2024-01-24T17:57:45.555Z,7.97
2024-01-24T18:00:14.313Z,7.93
2024-01-24T18:02:41.170Z,7.91
2024-01-24T18:05:08.474Z,7.89
2024-01-24T18:07:36.057Z,7.85
2024-01-24T18:10:03.530Z,7.82
2024-01-24T18:12:30.599Z,7.80
2024-01-24T18:14:57.287Z,7.77
2024-01-24T18:17:24.025Z,7.75
2024-01-24T18:19:51.274Z,7.72
2024-01-24T18:22:18.128Z,7.71
2024-01-24T18:24:47.620Z,7.69
2024-01-24T18:27:14.718Z,7.69
2024-01-24T18:29:41.608Z,7.67
2024-01-24T18:32:12.280Z,7.66
2024-01-24T18:34:39.570Z,7.64
2024-01-24T18:37:07.005Z,7.64
2024-01-24T18:39:33.960Z,7.59
2024-01-24T18:42:01.884Z,7.56
2024-01-24T18:44:28.776Z,7.54
2024-01-24T18:46:55.758Z,7.52
2024-01-24T18:49:22.573Z,7.51
2024-01-24T18:51:51.036Z,7.51
2024-01-24T18:54:18.231Z,7.48
2024-01-24T18:56:45.599Z,7.46
2024-01-24T18:59:12.561Z,7.43
2024-01-24T19:01:40.816Z,7.41
2024-01-24T19:04:07.881Z,7.41
2024-01-24T19:06:36.694Z,7.39
2024-01-24T19:09:03.907Z,7.37
2024-01-24T19:11:30.861Z,7.34
2024-01-24T19:13:57.967Z,7.31
2024-01-24T19:16:25.155Z,7.26
2024-01-24T19:18:52.072Z,7.24
2024-01-24T19:21:18.915Z,7.22
2024-01-24T19:23:45.633Z,7.18
2024-01-24T19:26:12.362Z,7.18
2024-01-24T19:28:39.452Z,7.17
2024-01-24T19:31:06.442Z,7.15
2024-01-24T19:33:33.250Z,7.14
2024-01-24T19:36:00.054Z,7.12
2024-01-24T19:38:27.412Z,7.12
2024-01-24T19:40:55.024Z,7.10
2024-01-24T19:43:21.916Z,7.06
2024-01-24T19:45:48.929Z,7.08
2024-01-24T19:48:15.823Z,7.04
2024-01-24T19:50:42.623Z,6.98
2024-01-24T19:53:12.939Z,6.92
2024-01-24T19:55:44.339Z,6.85
2024-01-24T19:58:11.105Z,6.77
2024-01-24T20:00:37.988Z,6.66
2024-01-24T20:03:05.066Z,6.57
2024-01-24T20:05:31.833Z,6.46
2024-01-24T20:07:58.630Z,6.37
2024-01-24T20:10:25.846Z,6.25
2024-01-24T20:12:52.612Z,6.20
2024-01-24T20:15:22.217Z,6.11
2024-01-24T20:17:49.299Z,6.06
2024-01-24T20:20:16.723Z,6.00
2024-01-24T20:22:43.761Z,5.95
2024-01-24T20:25:10.854Z,5.91
2024-01-24T20:27:37.731Z,5.87
2024-01-24T20:30:05.163Z,5.83
2024-01-24T20:32:31.951Z,5.85
2024-01-24T20:34:59.092Z,5.88
2024-01-24T20:37:25.870Z,5.90
2024-01-24T20:39:53.159Z,5.95
2024-01-24T20:42:28.382Z,5.96
2024-01-24T20:44:58.645Z,5.97
2024-01-24T20:47:26.407Z,5.93
2024-01-24T20:49:55.798Z,5.89
2024-01-24T20:52:22.848Z,5.86
2024-01-24T20:54:50.204Z,5.82
2024-01-24T20:57:17.330Z,5.79
2024-01-24T20:59:44.342Z,5.75
2024-01-24T21:02:12.021Z,5.68
2024-01-24T21:04:39.064Z,5.62
2024-01-24T21:07:07.596Z,5.56
2024-01-24T21:09:34.914Z,5.51
2024-01-24T21:12:01.754Z,5.48
2024-01-24T21:14:29.153Z,5.45
2024-01-24T21:16:55.935Z,5.42
2024-01-24T21:19:25.748Z,5.37
2024-01-24T21:21:53.153Z,5.35
2024-01-24T21:24:20.101Z,5.29
2024-01-24T21:26:48.184Z,5.26
2024-01-24T21:29:15.255Z,5.21
2024-01-24T21:31:48.017Z,5.17
2024-01-24T21:34:16.022Z,5.16
2024-01-24T21:36:48.099Z,5.13
2024-01-24T21:39:16.330Z,5.12
2024-01-24T21:41:44.745Z,5.11
2024-01-24T21:44:11.508Z,5.09
2024-01-24T21:46:38.224Z,5.11
2024-01-24T21:49:05.030Z,5.12
2024-01-24T21:51:32.135Z,5.14
2024-01-24T21:53:59.054Z,5.14
2024-01-24T21:56:25.953Z,5.13
2024-01-24T21:58:56.320Z,5.11
2024-01-24T22:01:25.743Z,5.06
2024-01-24T22:03:52.689Z,5.04
2024-01-24T22:06:19.476Z,5.00
2024-01-24T22:08:46.283Z,4.96
2024-01-24T22:11:15.000Z,4.91
2024-01-24T22:13:41.711Z,4.84
2024-01-24T22:16:08.508Z,4.80
2024-01-24T22:18:40.960Z,4.74
2024-01-24T22:21:14.244Z,4.69
2024-01-24T22:23:41.016Z,4.64
2024-01-24T22:26:07.716Z,4.58
2024-01-24T22:28:34.388Z,4.51
2024-01-24T22:31:01.333Z,4.49
2024-01-24T22:33:28.280Z,4.46
2024-01-24T22:35:55.176Z,4.45
2024-01-24T22:38:21.893Z,4.47
2024-01-24T22:40:48.897Z,4.47
2024-01-24T22:43:15.799Z,4.52
2024-01-24T22:45:46.395Z,4.59
2024-01-24T22:48:13.780Z,4.66
2024-01-24T22:50:41.527Z,4.72
2024-01-24T22:53:08.610Z,4.77
2024-01-24T22:55:35.467Z,4.81
2024-01-24T22:58:03.622Z,4.82
2024-01-24T23:00:30.584Z,4.81
2024-01-24T23:02:57.527Z,4.80
2024-01-24T23:05:24.318Z,4.75
2024-01-24T23:07:51.136Z,4.70
2024-01-24T23:10:18.479Z,4.65
2024-01-24T23:12:45.328Z,4.62
2024-01-24T23:15:12.105Z,4.59
2024-01-24T23:17:38.854Z,4.58
2024-01-24T23:20:08.082Z,4.56
2024-01-24T23:22:35.353Z,4.56
2024-01-24T23:25:02.236Z,4.56
2024-01-24T23:27:28.932Z,4.58
2024-01-24T23:29:55.671Z,4.59
2024-01-24T23:32:24.115Z,4.58
2024-01-24T23:34:50.945Z,4.58
2024-01-24T23:37:18.247Z,4.56
2024-01-24T23:39:45.380Z,4.55
2024-01-24T23:42:12.312Z,4.55
2024-01-24T23:44:40.115Z,4.57
2024-01-24T23:47:07.421Z,4.56
2024-01-24T23:49:34.656Z,4.54
2024-01-24T23:52:01.775Z,4.52
2024-01-24T23:54:28.720Z,4.51
2024-01-24T23:56:55.431Z,4.55
2024-01-24T23:59:22.223Z,4.57
